createdAt,value
2022-10-09T00:01:02.970Z,12.20
2022-10-09T00:03:31.723Z,12.10
2022-10-09T00:05:58.756Z,12.10
2022-10-09T00:08:26.301Z,12.10
2022-10-09T00:10:53.759Z,12.10
2022-10-09T00:13:20.954Z,12.00
2022-10-09T00:15:48.125Z,12.00
2022-10-09T00:18:17.597Z,11.90
2022-10-09T00:20:46.118Z,11.90
2022-10-09T00:23:17.501Z,11.80
2022-10-09T00:25:50.996Z,11.70
2022-10-09T00:28:17.987Z,11.80
2022-10-09T00:30:44.972Z,11.80
2022-10-09T00:33:11.878Z,11.90
2022-10-09T00:35:39.055Z,11.80
2022-10-09T00:38:08.141Z,12.00
2022-10-09T00:40:35.279Z,12.10
2022-10-09T00:43:02.217Z,12.00
2022-10-09T00:45:30.506Z,12.20
2022-10-09T00:48:00.981Z,12.20
2022-10-09T00:50:30.997Z,12.20
2022-10-09T00:53:00.160Z,12.20
2022-10-09T00:55:28.948Z,12.20
2022-10-09T00:57:56.041Z,12.20
2022-10-09T01:00:22.927Z,12.20
2022-10-09T01:02:50.050Z,12.20
2022-10-09T01:05:17.206Z,12.20
2022-10-09T01:07:48.341Z,12.20
2022-10-09T01:10:21.722Z,12.10
2022-10-09T01:12:54.525Z,12.10
2022-10-09T01:15:28.544Z,12.00
2022-10-09T01:18:01.952Z,12.00
2022-10-09T01:20:31.637Z,12.10
2022-10-09T01:23:06.900Z,11.90
2022-10-09T01:25:36.207Z,12.10
2022-10-09T01:28:06.097Z,11.80
2022-10-09T01:30:33.207Z,11.90
2022-10-09T01:33:00.901Z,11.80
2022-10-09T01:35:28.842Z,11.80
2022-10-09T01:37:56.413Z,11.90
2022-10-09T01:40:24.289Z,11.90
2022-10-09T01:42:51.831Z,11.60
2022-10-09T01:45:20.121Z,11.50
2022-10-09T01:47:47.044Z,11.50
2022-10-09T01:50:15.959Z,11.40
2022-10-09T01:52:47.273Z,11.40
2022-10-09T01:55:27.745Z,11.40
2022-10-09T01:57:58.648Z,11.40
2022-10-09T02:00:28.358Z,11.40
2022-10-09T02:02:56.306Z,11.40
2022-10-09T02:05:24.562Z,11.30
2022-10-09T02:07:51.888Z,11.40
2022-10-09T02:10:20.595Z,11.40
2022-10-09T02:12:50.247Z,11.30
2022-10-09T02:15:17.346Z,11.30
2022-10-09T02:17:47.120Z,11.30
2022-10-09T02:20:15.986Z,11.50
2022-10-09T02:22:43.124Z,11.10
2022-10-09T02:25:10.023Z,11.10
2022-10-09T02:27:37.219Z,11.20
2022-10-09T02:30:05.966Z,11.30
2022-10-09T02:32:32.766Z,11.20
2022-10-09T02:35:01.800Z,11.30
2022-10-09T02:37:28.638Z,11.20
2022-10-09T02:39:55.767Z,11.10
2022-10-09T02:42:22.538Z,11.00
2022-10-09T02:44:49.366Z,11.10
2022-10-09T02:47:16.146Z,11.20
2022-10-09T02:49:43.046Z,11.00
2022-10-09T02:52:11.157Z,11.10
2022-10-09T02:54:38.338Z,11.00
2022-10-09T02:57:05.256Z,10.90
2022-10-09T02:59:32.149Z,11.00
2022-10-09T03:01:59.022Z,11.00
2022-10-09T03:04:25.895Z,11.00
2022-10-09T03:06:52.765Z,11.00
2022-10-09T03:09:21.065Z,10.90
2022-10-09T03:11:47.864Z,10.90
2022-10-09T03:14:14.756Z,10.90
2022-10-09T03:16:41.619Z,10.90
2022-10-09T03:19:09.357Z,10.80
2022-10-09T03:21:36.486Z,10.80
2022-10-09T03:24:03.540Z,10.90
2022-10-09T03:26:32.001Z,10.70
2022-10-09T03:28:59.137Z,10.80
2022-10-09T03:31:50.769Z,10.90
2022-10-09T03:34:14.280Z,10.90
2022-10-09T03:36:42.288Z,10.90
2022-10-09T03:39:09.296Z,10.80
2022-10-09T03:41:37.800Z,10.80
2022-10-09T03:44:04.649Z,10.70
2022-10-09T03:46:31.567Z,10.70
2022-10-09T03:48:58.423Z,10.70
2022-10-09T03:51:25.326Z,10.80
2022-10-09T03:53:52.104Z,10.70
2022-10-09T03:56:18.844Z,10.70
2022-10-09T03:58:47.099Z,10.60
2022-10-09T04:01:14.106Z,10.60
2022-10-09T04:03:41.008Z,10.50
2022-10-09T04:06:07.823Z,10.50
2022-10-09T04:08:35.144Z,10.50
2022-10-09T04:11:02.163Z,10.40
2022-10-09T04:13:28.941Z,10.40
2022-10-09T04:15:57.247Z,10.40
2022-10-09T04:18:24.696Z,10.30
2022-10-09T04:20:52.204Z,10.40
2022-10-09T04:23:19.348Z,10.40
2022-10-09T04:25:46.435Z,10.30
2022-10-09T04:28:13.371Z,10.30
2022-10-09T04:30:40.504Z,10.30
2022-10-09T04:33:12.754Z,10.30
2022-10-09T04:35:41.776Z,10.20
2022-10-09T04:38:08.655Z,10.20
2022-10-09T04:40:35.471Z,10.20
2022-10-09T04:43:02.222Z,10.20
2022-10-09T04:45:29.108Z,10.10
2022-10-09T04:47:55.920Z,10.20
2022-10-09T04:50:24.220Z,10.20
2022-10-09T04:52:59.952Z,10.20
2022-10-09T04:55:26.743Z,10.10
2022-10-09T04:57:53.499Z,10.10
2022-10-09T05:00:20.261Z,10.00
2022-10-09T05:02:47.404Z,10.00
2022-10-09T05:05:14.480Z,9.90
2022-10-09T05:07:42.664Z,9.90
2022-10-09T05:10:09.581Z,9.90
2022-10-09T05:12:36.346Z,9.90
2022-10-09T05:15:03.358Z,9.90
2022-10-09T05:17:30.236Z,9.90
2022-10-09T05:19:57.263Z,9.90
2022-10-09T05:22:24.090Z,10.00
2022-10-09T05:24:52.475Z,9.80
2022-10-09T05:27:19.385Z,9.70
2022-10-09T05:29:46.309Z,9.70
2022-10-09T05:32:14.661Z,9.70
2022-10-09T05:34:41.480Z,9.50
2022-10-09T05:37:08.426Z,9.60
2022-10-09T05:39:38.655Z,9.60
2022-10-09T05:42:07.270Z,9.70
2022-10-09T05:44:34.359Z,9.80
2022-10-09T05:47:01.580Z,9.70
2022-10-09T05:49:28.825Z,9.90
2022-10-09T05:51:56.265Z,9.90
2022-10-09T05:54:23.429Z,9.90
2022-10-09T05:56:50.715Z,10.00
2022-10-09T05:59:22.415Z,9.90
2022-10-09T06:01:50.503Z,10.00
2022-10-09T06:04:18.904Z,10.10
2022-10-09T06:06:47.794Z,10.20
2022-10-09T06:09:15.515Z,10.30
2022-10-09T06:11:42.713Z,10.20
2022-10-09T06:14:10.792Z,10.20
2022-10-09T06:16:40.407Z,10.30
2022-10-09T06:19:08.522Z,10.40
2022-10-09T06:21:35.544Z,10.50
2022-10-09T06:25:29.287Z,10.50
2022-10-09T06:27:56.401Z,10.50
2022-10-09T06:30:23.455Z,10.50
2022-10-09T06:32:51.050Z,10.60
2022-10-09T06:35:18.688Z,10.70
2022-10-09T06:37:45.580Z,10.70
2022-10-09T06:40:12.433Z,10.80
2022-10-09T06:42:40.933Z,11.30
2022-10-09T06:45:16.777Z,11.80
2022-10-09T06:47:43.620Z,12.00
2022-10-09T06:50:10.687Z,12.60
2022-10-09T06:52:37.483Z,13.50
2022-10-09T06:55:06.265Z,14.20
2022-10-09T06:57:33.128Z,15.20
2022-10-09T07:00:02.007Z,15.70
2022-10-09T07:02:28.845Z,15.70
2022-10-09T07:04:55.697Z,15.50
2022-10-09T07:07:22.555Z,15.40
2022-10-09T07:09:49.677Z,15.20
2022-10-09T07:12:16.456Z,14.90
2022-10-09T07:14:43.336Z,14.90
2022-10-09T07:17:12.287Z,14.60
2022-10-09T07:19:39.228Z,14.50
2022-10-09T07:22:11.282Z,14.30
2022-10-09T07:24:38.503Z,14.30
2022-10-09T07:27:05.580Z,14.10
2022-10-09T07:29:32.851Z,14.20
2022-10-09T07:31:59.620Z,14.20
2022-10-09T07:34:27.931Z,14.30
2022-10-09T07:36:56.283Z,14.50
2022-10-09T07:39:23.214Z,14.70
2022-10-09T07:41:51.537Z,15.00
2022-10-09T07:44:18.310Z,15.00
2022-10-09T07:46:45.774Z,15.00
2022-10-09T07:49:12.606Z,15.60
2022-10-09T07:51:40.907Z,15.80
2022-10-09T07:54:07.873Z,15.80
2022-10-09T07:56:35.831Z,16.00
2022-10-09T07:59:05.123Z,16.30
2022-10-09T08:01:32.508Z,16.60
2022-10-09T08:04:00.059Z,17.00
2022-10-09T08:06:27.132Z,17.40
2022-10-09T08:08:56.126Z,17.70
2022-10-09T08:11:23.673Z,17.90
2022-10-09T08:13:50.533Z,18.00
2022-10-09T08:16:18.162Z,18.10
2022-10-09T08:18:45.007Z,18.50
2022-10-09T08:21:12.553Z,19.30
2022-10-09T08:23:39.419Z,20.00
2022-10-09T08:26:13.389Z,20.50
2022-10-09T08:28:40.315Z,20.20
2022-10-09T08:31:10.920Z,20.00
2022-10-09T08:33:37.982Z,19.90
2022-10-09T08:36:05.651Z,20.40
2022-10-09T08:38:46.621Z,20.30
2022-10-09T08:41:20.042Z,20.50
2022-10-09T08:43:47.690Z,20.70
2022-10-09T08:46:20.723Z,21.30
2022-10-09T08:48:48.452Z,21.50
2022-10-09T08:51:26.473Z,22.60
2022-10-09T08:53:58.523Z,22.50
2022-10-09T08:56:29.165Z,23.30
2022-10-09T08:58:56.726Z,23.90
2022-10-09T09:01:29.570Z,24.80
2022-10-09T09:04:18.308Z,25.10
2022-10-09T09:06:51.295Z,24.90
2022-10-09T09:09:21.854Z,24.90
2022-10-09T09:11:53.211Z,25.20
2022-10-09T09:14:29.090Z,24.90
2022-10-09T09:17:05.621Z,24.40
2022-10-09T09:19:40.391Z,24.60
2022-10-09T09:22:09.955Z,24.70
2022-10-09T09:24:38.273Z,25.00
2022-10-09T09:27:13.695Z,25.30
2022-10-09T09:29:42.490Z,24.80
2022-10-09T09:32:14.379Z,24.50
2022-10-09T09:34:42.012Z,25.30
2022-10-09T09:37:09.779Z,24.90
2022-10-09T09:42:25.293Z,26.20
2022-10-09T09:44:56.957Z,26.60
2022-10-09T09:47:26.212Z,26.40
2022-10-09T09:49:55.048Z,26.80
2022-10-09T09:52:22.285Z,27.40
2022-10-09T09:54:49.760Z,26.50
2022-10-09T09:57:22.250Z,25.80
2022-10-09T09:59:50.723Z,26.00
2022-10-09T10:02:18.698Z,26.20
2022-10-09T10:04:49.806Z,25.70
2022-10-09T10:07:27.015Z,25.90
2022-10-09T10:10:05.343Z,25.70
2022-10-09T10:12:35.417Z,24.00
2022-10-09T10:15:04.521Z,23.80
2022-10-09T10:17:33.591Z,23.70
2022-10-09T10:20:04.937Z,24.50
2022-10-09T10:22:34.259Z,24.30
2022-10-09T10:25:01.949Z,24.20
2022-10-09T10:27:33.548Z,23.50
2022-10-09T10:30:05.073Z,23.90
2022-10-09T10:32:33.234Z,24.60
2022-10-09T10:35:05.025Z,25.30
2022-10-09T10:37:38.731Z,25.40
2022-10-09T10:40:14.437Z,25.80
2022-10-09T10:42:50.957Z,26.70
2022-10-09T10:45:26.913Z,26.60
2022-10-09T10:47:57.054Z,26.30
2022-10-09T10:50:27.485Z,25.10
2022-10-09T10:53:03.770Z,25.20
2022-10-09T10:55:36.257Z,24.60
2022-10-09T10:58:15.222Z,24.60
2022-10-09T11:00:53.267Z,26.00
2022-10-09T11:03:34.386Z,26.30
2022-10-09T11:06:05.338Z,25.70
2022-10-09T11:08:43.693Z,25.00
2022-10-09T11:11:17.891Z,24.20
2022-10-09T11:13:50.687Z,25.10
2022-10-09T11:17:18.643Z,25.40
2022-10-09T11:19:58.993Z,25.40
2022-10-09T11:22:40.429Z,25.70
2022-10-09T11:25:21.807Z,26.20
2022-10-09T11:27:54.761Z,25.80
2022-10-09T11:30:22.040Z,25.70
2022-10-09T11:32:57.912Z,25.70
2022-10-09T11:35:28.087Z,26.60
2022-10-09T11:38:01.303Z,26.40
2022-10-09T11:40:30.584Z,26.20
2022-10-09T11:43:00.439Z,25.50
2022-10-09T11:45:35.113Z,26.30
2022-10-09T11:48:05.594Z,26.40
2022-10-09T11:50:37.411Z,26.40
2022-10-09T11:53:06.629Z,26.70
2022-10-09T11:55:33.842Z,26.80
2022-10-09T11:58:21.394Z,26.70
2022-10-09T12:00:50.667Z,27.00
2022-10-09T12:03:25.718Z,26.10
2022-10-09T12:06:01.787Z,26.20
2022-10-09T12:08:28.992Z,26.00
2022-10-09T12:10:58.143Z,25.60
2022-10-09T12:13:30.731Z,26.10
2022-10-09T12:15:58.347Z,27.00
2022-10-09T12:18:29.259Z,27.50
2022-10-09T12:20:57.582Z,27.30
2022-10-09T12:23:27.596Z,27.20
2022-10-09T12:25:55.658Z,27.60
2022-10-09T12:28:28.306Z,27.20
2022-10-09T12:30:56.397Z,27.10
2022-10-09T12:33:26.058Z,27.20
2022-10-09T12:36:06.371Z,27.50
2022-10-09T12:38:33.363Z,28.30
2022-10-09T12:41:04.152Z,28.20
2022-10-09T12:43:32.757Z,27.40
2022-10-09T12:46:00.022Z,26.20
2022-10-09T12:48:27.973Z,26.00
2022-10-09T12:50:55.851Z,26.00
2022-10-09T12:53:24.844Z,26.10
2022-10-09T12:55:55.400Z,26.80
2022-10-09T12:58:24.748Z,27.80
2022-10-09T13:00:55.546Z,26.60
2022-10-09T13:03:24.091Z,25.00
2022-10-09T13:05:51.634Z,23.60
2022-10-09T13:08:23.233Z,22.90
2022-10-09T13:10:51.767Z,22.00
2022-10-09T13:13:22.491Z,21.30
2022-10-09T13:15:59.545Z,20.80
2022-10-09T13:18:26.524Z,20.40
2022-10-09T13:21:02.674Z,20.10
2022-10-09T13:23:33.282Z,19.90
2022-10-09T13:26:04.921Z,19.90
2022-10-09T13:28:32.315Z,20.00
2022-10-09T13:31:07.054Z,20.00
2022-10-09T13:33:34.444Z,20.00
2022-10-09T13:36:01.236Z,19.80
2022-10-09T13:38:31.391Z,19.80
2022-10-09T13:41:02.581Z,20.00
2022-10-09T13:43:31.104Z,20.40
2022-10-09T13:45:57.985Z,20.20
2022-10-09T13:48:29.479Z,20.30
2022-10-09T13:50:59.393Z,20.40
2022-10-09T13:53:26.644Z,20.50
2022-10-09T13:55:55.938Z,20.40
2022-10-09T13:58:25.564Z,20.40
2022-10-09T14:00:52.583Z,20.20
2022-10-09T14:03:19.427Z,19.90
2022-10-09T14:05:46.373Z,20.00
2022-10-09T14:08:13.425Z,20.00
2022-10-09T14:10:41.952Z,20.20
2022-10-09T14:13:08.990Z,20.20
2022-10-09T14:15:40.858Z,20.10
2022-10-09T14:18:08.023Z,19.90
2022-10-09T14:20:35.518Z,19.90
2022-10-09T14:23:02.530Z,20.00
2022-10-09T14:25:29.587Z,20.00
2022-10-09T14:27:56.716Z,19.80
2022-10-09T14:30:23.730Z,19.90
2022-10-09T14:32:52.504Z,19.80
2022-10-09T14:35:21.599Z,19.80
2022-10-09T14:37:48.976Z,19.60
2022-10-09T14:40:16.022Z,19.40
2022-10-09T14:42:42.978Z,19.30
2022-10-09T14:45:10.961Z,19.10
2022-10-09T14:47:37.832Z,19.00
2022-10-09T14:50:07.751Z,19.00
2022-10-09T14:52:34.800Z,19.10
2022-10-09T14:55:01.792Z,18.90
2022-10-09T14:57:34.299Z,19.00
2022-10-09T15:00:02.591Z,19.10
2022-10-09T15:02:30.010Z,19.10
2022-10-09T15:04:57.224Z,19.10
2022-10-09T15:07:27.984Z,19.00
2022-10-09T15:09:55.189Z,19.00
2022-10-09T15:12:21.985Z,18.60
2022-10-09T15:14:48.890Z,18.50
2022-10-09T15:17:15.957Z,18.70
2022-10-09T15:19:42.756Z,18.80
2022-10-09T15:22:09.678Z,18.90
2022-10-09T15:24:37.999Z,18.90
2022-10-09T15:27:05.368Z,18.60
2022-10-09T15:29:32.314Z,18.90
2022-10-09T15:31:59.289Z,18.90
2022-10-09T15:34:26.841Z,19.00
2022-10-09T15:36:53.708Z,18.90
2022-10-09T15:39:20.650Z,18.80
2022-10-09T15:41:48.845Z,19.20
2022-10-09T15:44:16.499Z,19.30
2022-10-09T15:46:43.333Z,19.30
2022-10-09T15:49:10.223Z,19.20
2022-10-09T15:51:37.273Z,19.20
2022-10-09T15:54:04.688Z,19.20
2022-10-09T15:56:34.824Z,19.20
2022-10-09T15:59:06.247Z,19.20
2022-10-09T16:01:33.459Z,19.10
2022-10-09T16:04:00.296Z,19.00
2022-10-09T16:06:27.146Z,19.30
2022-10-09T16:08:55.091Z,19.30
2022-10-09T16:11:25.151Z,19.20
2022-10-09T16:13:54.664Z,19.00
2022-10-09T16:16:23.685Z,18.90
2022-10-09T16:18:51.079Z,18.80
2022-10-09T16:21:18.884Z,18.90
2022-10-09T16:23:46.160Z,18.90
2022-10-09T16:26:15.468Z,18.90
2022-10-09T16:28:43.688Z,18.60
2022-10-09T16:31:17.453Z,18.40
2022-10-09T16:33:45.665Z,18.50
2022-10-09T16:36:12.948Z,18.50
2022-10-09T16:38:40.518Z,18.70
2022-10-09T16:41:07.967Z,18.70
2022-10-09T16:43:34.917Z,18.60
2022-10-09T16:46:18.624Z,18.60
2022-10-09T16:48:47.400Z,18.50
2022-10-09T16:51:14.942Z,18.70
2022-10-09T16:53:42.093Z,18.60
2022-10-09T16:56:10.568Z,18.50
2022-10-09T16:58:37.576Z,18.40
2022-10-09T17:01:09.417Z,18.40
2022-10-09T17:03:37.294Z,18.40
2022-10-09T17:06:08.575Z,18.20
2022-10-09T17:08:35.704Z,18.30
2022-10-09T17:11:05.431Z,18.30
2022-10-09T17:13:32.256Z,18.20
2022-10-09T17:15:59.101Z,18.10
2022-10-09T17:18:25.997Z,18.00
2022-10-09T17:20:52.818Z,18.00
2022-10-09T17:23:21.048Z,17.90
2022-10-09T17:25:47.886Z,17.80
2022-10-09T17:28:14.738Z,17.70
2022-10-09T17:30:41.576Z,17.60
2022-10-09T17:33:08.584Z,17.50
2022-10-09T17:35:38.717Z,17.30
2022-10-09T17:38:05.606Z,17.20
2022-10-09T17:40:36.599Z,17.20
2022-10-09T17:43:03.426Z,17.00
2022-10-09T17:45:30.240Z,16.90
2022-10-09T17:47:57.234Z,16.80
2022-10-09T17:50:24.129Z,16.60
2022-10-09T17:52:51.190Z,16.50
2022-10-09T17:55:18.386Z,16.50
2022-10-09T17:57:46.827Z,16.40
2022-10-09T18:00:18.463Z,16.30
2022-10-09T18:02:47.883Z,16.20
2022-10-09T18:05:15.104Z,16.10
2022-10-09T18:07:41.896Z,16.00
2022-10-09T18:10:09.291Z,15.90
2022-10-09T18:12:36.161Z,15.90
2022-10-09T18:15:05.465Z,15.80
2022-10-09T18:17:34.495Z,15.70
2022-10-09T18:20:01.336Z,15.70
2022-10-09T18:22:28.229Z,15.60
2022-10-09T18:24:55.081Z,15.60
2022-10-09T18:27:23.879Z,15.50
2022-10-09T18:29:50.738Z,15.40
2022-10-09T18:32:18.975Z,15.40
2022-10-09T18:34:46.709Z,15.40
2022-10-09T18:37:14.135Z,15.30
2022-10-09T18:39:41.032Z,15.30
2022-10-09T18:42:08.055Z,15.20
2022-10-09T18:44:40.342Z,14.90
2022-10-09T18:47:12.208Z,14.90
2022-10-09T18:49:42.543Z,15.00
2022-10-09T18:52:16.355Z,15.10
2022-10-09T18:54:44.459Z,15.00
2022-10-09T18:57:12.318Z,15.30
2022-10-09T18:59:42.048Z,15.30
2022-10-09T19:02:09.468Z,15.30
2022-10-09T19:04:36.631Z,15.20
2022-10-09T19:07:05.221Z,15.20
2022-10-09T19:09:34.355Z,15.30
2022-10-09T19:12:01.504Z,15.20
2022-10-09T19:14:28.343Z,15.20
2022-10-09T19:16:55.229Z,15.00
2022-10-09T19:19:22.032Z,15.00
2022-10-09T19:21:48.841Z,15.00
2022-10-09T19:24:17.249Z,15.00
2022-10-09T19:26:44.135Z,15.10
2022-10-09T19:29:11.216Z,15.20
2022-10-09T19:31:38.091Z,15.00
2022-10-09T19:34:05.510Z,14.90
2022-10-09T19:36:36.713Z,14.70
2022-10-09T19:39:04.220Z,14.90
2022-10-09T19:41:32.445Z,15.00
2022-10-09T19:43:59.364Z,14.90
2022-10-09T19:46:26.726Z,14.90
2022-10-09T19:48:53.784Z,14.70
2022-10-09T19:51:21.618Z,14.70
2022-10-09T19:53:48.466Z,14.80
2022-10-09T19:56:17.563Z,14.60
2022-10-09T19:58:47.156Z,14.70
2022-10-09T20:01:14.528Z,14.80
2022-10-09T20:03:41.537Z,14.90
2022-10-09T20:06:09.346Z,15.00
2022-10-09T20:08:36.298Z,15.00
2022-10-09T20:11:03.672Z,14.60
2022-10-09T20:13:30.574Z,14.60
2022-10-09T20:16:00.616Z,14.70
2022-10-09T20:18:27.519Z,14.60
2022-10-09T20:20:54.356Z,14.70
2022-10-09T20:23:21.313Z,14.80
2022-10-09T20:25:48.177Z,15.00
2022-10-09T20:28:15.593Z,14.80
2022-10-09T20:30:42.797Z,14.80
2022-10-09T20:33:11.002Z,14.90
2022-10-09T20:35:41.451Z,14.60
2022-10-09T20:38:08.281Z,14.60
2022-10-09T20:40:35.200Z,14.60
2022-10-09T20:43:02.177Z,14.50
2022-10-09T20:45:29.088Z,14.50
2022-10-09T20:47:55.926Z,14.80
2022-10-09T20:50:24.047Z,14.70
2022-10-09T20:52:51.341Z,14.80
2022-10-09T20:55:18.471Z,14.80
2022-10-09T20:57:45.413Z,14.40
2022-10-09T21:00:13.296Z,14.30
2022-10-09T21:02:40.250Z,14.00
2022-10-09T21:05:08.178Z,14.10
2022-10-09T21:07:36.327Z,14.10
2022-10-09T21:10:03.551Z,14.20
2022-10-09T21:12:30.496Z,14.30
2022-10-09T21:14:57.669Z,14.50
2022-10-09T21:17:24.681Z,14.70
2022-10-09T21:19:51.774Z,14.80
2022-10-09T21:22:18.658Z,14.80
2022-10-09T21:24:46.996Z,14.70
2022-10-09T21:27:13.839Z,14.80
2022-10-09T21:29:40.640Z,14.80
2022-10-09T21:32:07.514Z,14.90
2022-10-09T21:34:36.204Z,15.00
2022-10-09T21:39:51.872Z,14.90
2022-10-09T21:42:18.837Z,14.90
2022-10-09T21:44:45.872Z,14.80
2022-10-09T21:47:16.370Z,14.40
2022-10-09T21:49:43.356Z,14.30
2022-10-09T21:52:10.635Z,14.30
2022-10-09T21:54:37.434Z,14.20
2022-10-09T21:57:05.639Z,14.20
2022-10-09T21:59:32.477Z,14.20
2022-10-09T22:01:59.554Z,14.30
2022-10-09T22:04:26.570Z,14.50
2022-10-09T22:06:53.363Z,14.50
2022-10-09T22:09:20.521Z,14.60
2022-10-09T22:11:47.538Z,14.60
2022-10-09T22:14:15.941Z,14.40
2022-10-09T22:16:43.057Z,14.50
2022-10-09T22:19:10.202Z,14.20
2022-10-09T22:21:37.056Z,14.30
2022-10-09T22:24:04.189Z,14.30
2022-10-09T22:26:31.805Z,14.30
2022-10-09T22:28:58.841Z,14.20
2022-10-09T22:31:28.269Z,14.10
2022-10-09T22:33:57.252Z,14.10
2022-10-09T22:36:26.252Z,14.00
2022-10-09T22:38:54.391Z,14.10
2022-10-09T22:41:22.642Z,14.00
2022-10-09T22:43:51.611Z,13.90
2022-10-09T22:46:19.243Z,13.90
2022-10-09T22:48:47.607Z,14.00
2022-10-09T22:51:15.770Z,14.00
2022-10-09T22:53:43.405Z,13.90
2022-10-09T22:56:11.889Z,14.00
2022-10-09T22:58:38.711Z,13.90
2022-10-09T23:01:06.645Z,14.10
2022-10-09T23:03:33.744Z,14.30
2022-10-09T23:06:10.083Z,14.30
2022-10-09T23:08:37.387Z,14.20
2022-10-09T23:11:04.228Z,14.20
2022-10-09T23:13:31.347Z,14.10
2022-10-09T23:15:59.522Z,14.10
2022-10-09T23:18:26.504Z,14.00
2022-10-09T23:20:53.370Z,14.20
2022-10-09T23:23:21.591Z,14.10
2022-10-09T23:25:48.580Z,14.10
2022-10-09T23:28:15.442Z,13.80
2022-10-09T23:30:42.480Z,13.80
2022-10-09T23:33:09.287Z,13.90
2022-10-09T23:35:39.727Z,13.90
2022-10-09T23:38:06.610Z,13.80
2022-10-09T23:40:34.828Z,13.60
2022-10-09T23:43:01.716Z,13.80
2022-10-09T23:45:28.503Z,13.80
2022-10-09T23:47:55.238Z,13.90
2022-10-09T23:50:22.024Z,13.70
2022-10-09T23:52:49.061Z,13.70
2022-10-09T23:55:15.981Z,13.80
2022-10-09T23:57:44.230Z,13.80
